Time;durP1;ratioP1;P1;durP2;ratioP2;P2;SDS_P1;SDS_P2;PMS_P1;PMS_P2;Temp;Humidity;BMP_temperature;BMP_pressure;BME280_temperature;BME280_humidity;BME280_pressure;Samples;Min_cycle;Max_cycle;Signal;HPM_P1;HPM_P2
2022/03/29 00:01:00;;;;;;;;;13.50;7.25;;;;;;;;5100371;27;51171;-50
2022/03/29 00:03:45;;;;;;;;;9.75;6.25;;;;;;;;5089433;27;51227;-51
2022/03/29 00:06:30;;;;;;;;;13.00;8.75;;;;;;;;5081069;27;51426;-54
2022/03/29 00:09:17;;;;;;;;;10.50;7.00;;;;;;;;5100516;27;51173;-53
2022/03/29 00:12:04;;;;;;;;;9.25;8.00;;;;;;;;5095444;27;52175;-52
2022/03/29 00:14:49;;;;;;;;;10.75;8.25;;;;;;;;5101563;27;51088;-52
2022/03/29 00:17:34;;;;;;;;;11.00;7.75;;;;;;;;5081042;27;51155;-53
2022/03/29 00:20:20;;;;;;;;;11.75;8.50;;;;;;;;5080615;27;51164;-50
2022/03/29 00:23:11;;;;;;;;;11.00;8.50;;;;;;;;5080617;27;51228;-53
2022/03/29 00:25:59;;;;;;;;;16.00;14.50;;;;;;;;5079187;27;51173;-48
2022/03/29 00:28:44;;;;;;;;;12.50;10.25;;;;;;;;5080359;27;51159;-51
2022/03/29 00:31:32;;;;;;;;;15.75;9.75;;;;;;;;5086962;27;51126;-51
2022/03/29 00:34:21;;;;;;;;;13.50;8.00;;;;;;;;5079239;27;51424;-49
2022/03/29 00:37:05;;;;;;;;;12.75;11.50;;;;;;;;5095525;27;51150;-53
2022/03/29 00:39:50;;;;;;;;;15.75;11.75;;;;;;;;5080623;27;51176;-48
2022/03/29 00:42:57;;;;;;;;;16.00;11.50;;;;;;;;5081053;27;51424;-50
2022/03/29 00:45:45;;;;;;;;;10.75;6.50;;;;;;;;5096735;27;51081;-53
2022/03/29 00:48:42;;;;;;;;;32.25;22.25;;;;;;;;5098392;27;51149;-50
2022/03/29 00:51:49;;;;;;;;;48.50;36.75;;;;;;;;5090663;27;51176;-52
2022/03/29 00:54:56;;;;;;;;;29.75;21.50;;;;;;;;5081544;27;51079;-51
2022/03/29 00:57:45;;;;;;;;;31.75;25.50;;;;;;;;5089683;27;51529;-52
2022/03/29 01:00:33;;;;;;;;;22.25;15.50;;;;;;;;5053368;27;51360;-50
2022/03/29 01:03:18;;;;;;;;;16.50;10.00;;;;;;;;5097772;27;51070;-49
2022/03/29 01:06:17;;;;;;;;;12.00;10.25;;;;;;;;5080789;27;51084;-50
2022/03/29 01:09:02;;;;;;;;;13.00;10.00;;;;;;;;5079835;27;51079;-52
2022/03/29 01:11:58;;;;;;;;;10.50;7.50;;;;;;;;5093950;27;51130;-52
2022/03/29 01:14:43;;;;;;;;;11.75;8.25;;;;;;;;5084972;27;51430;-48
2022/03/29 01:17:39;;;;;;;;;7.75;6.25;;;;;;;;5094502;27;51168;-55
2022/03/29 01:20:27;;;;;;;;;15.00;9.75;;;;;;;;5081083;27;51119;-50
2022/03/29 01:23:15;;;;;;;;;13.50;10.00;;;;;;;;5079786;27;51040;-53
2022/03/29 01:26:00;;;;;;;;;12.25;9.50;;;;;;;;5098788;27;51399;-52
2022/03/29 01:28:57;;;;;;;;;10.25;9.50;;;;;;;;5090313;27;51162;-49
2022/03/29 01:31:44;;;;;;;;;12.00;10.75;;;;;;;;5091738;27;51198;-48
2022/03/29 01:34:30;;;;;;;;;11.50;8.50;;;;;;;;5094530;27;51593;-52
2022/03/29 01:37:16;;;;;;;;;10.00;9.00;;;;;;;;5099098;27;51269;-49
2022/03/29 01:40:10;;;;;;;;;10.25;7.50;;;;;;;;5097304;27;51069;-50
2022/03/29 01:42:56;;;;;;;;;11.50;9.00;;;;;;;;5079604;27;51621;-51
2022/03/29 01:45:41;;;;;;;;;16.25;8.50;;;;;;;;5080014;27;51131;-52
2022/03/29 01:48:27;;;;;;;;;13.50;7.75;;;;;;;;5079528;27;51078;-54
2022/03/29 01:51:30;;;;;;;;;11.50;9.25;;;;;;;;5091305;27;51558;-52
2022/03/29 01:54:32;;;;;;;;;14.00;11.00;;;;;;;;5090732;27;51130;-49
2022/03/29 01:57:37;;;;;;;;;11.00;8.25;;;;;;;;5097966;27;51030;-52
2022/03/29 02:00:31;;;;;;;;;7.25;6.00;;;;;;;;5095651;27;51121;-51
2022/03/29 02:03:17;;;;;;;;;11.50;7.75;;;;;;;;5098477;27;51151;-48
2022/03/29 02:06:08;;;;;;;;;12.00;4.00;;;;;;;;5102738;27;51433;-49
2022/03/29 02:08:53;;;;;;;;;11.00;9.00;;;;;;;;5082666;27;51167;-49
2022/03/29 02:11:42;;;;;;;;;11.25;7.00;;;;;;;;5083753;27;51225;-53
2022/03/29 02:14:35;;;;;;;;;14.50;8.75;;;;;;;;5082781;27;51079;-53
2022/03/29 02:17:45;;;;;;;;;9.25;7.75;;;;;;;;5087098;27;51873;-52
2022/03/29 02:20:30;;;;;;;;;10.00;7.00;;;;;;;;5099662;27;51098;-48
2022/03/29 02:23:39;;;;;;;;;10.00;9.00;;;;;;;;5100251;27;51015;-51
2022/03/29 02:26:29;;;;;;;;;12.75;8.25;;;;;;;;5094395;27;51060;-52
2022/03/29 02:29:15;;;;;;;;;10.00;7.50;;;;;;;;5082616;27;51217;-49
2022/03/29 02:32:01;;;;;;;;;11.75;6.75;;;;;;;;5091071;27;51050;-50
2022/03/29 02:34:46;;;;;;;;;14.25;7.75;;;;;;;;5073356;27;51204;-48
2022/03/29 02:37:34;;;;;;;;;10.25;7.25;;;;;;;;5083050;27;51176;-49
2022/03/29 02:40:36;;;;;;;;;9.00;7.00;;;;;;;;5102145;27;51421;-49
2022/03/29 02:43:21;;;;;;;;;15.00;10.75;;;;;;;;5101448;27;51367;-49
2022/03/29 02:46:08;;;;;;;;;14.25;8.00;;;;;;;;5096871;27;51111;-54
2022/03/29 02:49:14;;;;;;;;;12.25;8.75;;;;;;;;5082705;27;50953;-53
2022/03/29 02:51:58;;;;;;;;;12.00;8.00;;;;;;;;5082261;27;51576;-51
2022/03/29 02:54:46;;;;;;;;;9.75;7.50;;;;;;;;5082867;27;51103;-52
2022/03/29 02:57:30;;;;;;;;;11.50;8.25;;;;;;;;5092535;27;51111;-52
2022/03/29 03:03:21;;;;;;;;;17.00;10.00;;;;;;;;5082749;27;51235;-46
2022/03/29 03:06:08;;;;;;;;;12.25;8.25;;;;;;;;5094803;27;51083;-49
2022/03/29 03:08:52;;;;;;;;;14.25;11.25;;;;;;;;5082234;27;51183;-47
2022/03/29 03:11:38;;;;;;;;;14.50;9.25;;;;;;;;5081533;27;51114;-47
2022/03/29 03:14:28;;;;;;;;;15.00;9.50;;;;;;;;5082045;27;51060;-47
2022/03/29 03:17:14;;;;;;;;;13.25;7.75;;;;;;;;5080237;27;51178;-49
2022/03/29 03:20:20;;;;;;;;;14.75;8.75;;;;;;;;5094774;27;51118;-52
2022/03/29 03:23:06;;;;;;;;;4.50;3.00;;;;;;;;5081858;27;51047;-51
2022/03/29 03:25:50;;;;;;;;;14.00;9.25;;;;;;;;5081861;27;51545;-50
2022/03/29 03:28:39;;;;;;;;;14.00;9.75;;;;;;;;5081881;27;51071;-50
2022/03/29 03:31:23;;;;;;;;;11.25;8.75;;;;;;;;5093832;27;51094;-48
2022/03/29 03:34:23;;;;;;;;;10.50;8.25;;;;;;;;5094218;27;51074;-50
2022/03/29 03:37:30;;;;;;;;;12.50;10.00;;;;;;;;5089495;27;51082;-49
2022/03/29 03:40:33;;;;;;;;;16.00;7.50;;;;;;;;5081246;27;51023;-50
2022/03/29 03:43:27;;;;;;;;;11.25;9.00;;;;;;;;5100170;27;51110;-50
2022/03/29 03:46:12;;;;;;;;;13.00;6.75;;;;;;;;5094531;27;51060;-52
2022/03/29 03:48:57;;;;;;;;;13.50;9.25;;;;;;;;5083069;27;51466;-53
2022/03/29 03:51:51;;;;;;;;;12.75;8.25;;;;;;;;5101019;27;51448;-49
2022/03/29 03:57:58;;;;;;;;;13.75;10.75;;;;;;;;5100438;27;51078;-53
2022/03/29 04:00:44;;;;;;;;;9.50;8.00;;;;;;;;5100519;27;51354;-53
2022/03/29 04:03:29;;;;;;;;;13.25;9.25;;;;;;;;5084015;27;51246;-51
2022/03/29 04:06:26;;;;;;;;;8.50;2.25;;;;;;;;5081268;27;51005;-51
2022/03/29 04:09:11;;;;;;;;;11.75;6.75;;;;;;;;5096928;27;50999;-50
2022/03/29 04:11:58;;;;;;;;;13.00;9.00;;;;;;;;5099987;27;51066;-51
2022/03/29 04:14:43;;;;;;;;;15.00;10.50;;;;;;;;5097439;27;51105;-49
2022/03/29 04:17:28;;;;;;;;;10.25;10.25;;;;;;;;5100273;27;51165;-51
2022/03/29 04:20:15;;;;;;;;;13.25;9.50;;;;;;;;5086514;27;51039;-52
2022/03/29 04:23:03;;;;;;;;;12.50;11.00;;;;;;;;5083722;27;51234;-51
2022/03/29 04:25:49;;;;;;;;;15.00;9.00;;;;;;;;5085153;27;52234;-49
2022/03/29 04:28:34;;;;;;;;;11.00;10.00;;;;;;;;5080550;27;51106;-52
2022/03/29 04:31:19;;;;;;;;;64.25;50.25;;;;;;;;5081600;27;51201;-51
2022/03/29 04:34:05;;;;;;;;;39.50;32.75;;;;;;;;5092316;27;51631;-50
2022/03/29 04:36:58;;;;;;;;;59.00;45.75;;;;;;;;5085790;27;51058;-50
2022/03/29 04:40:08;;;;;;;;;39.25;32.00;;;;;;;;5088501;27;51460;-52
2022/03/29 04:43:00;;;;;;;;;31.25;25.50;;;;;;;;5080177;27;51149;-50
2022/03/29 04:45:48;;;;;;;;;21.25;19.75;;;;;;;;5085870;27;51209;-52
2022/03/29 04:48:34;;;;;;;;;8.25;6.50;;;;;;;;5093954;27;51052;-53
2022/03/29 04:51:20;;;;;;;;;13.25;11.50;;;;;;;;5080886;27;51389;-54
2022/03/29 04:54:22;;;;;;;;;18.75;12.50;;;;;;;;5079751;27;51309;-49
2022/03/29 04:57:06;;;;;;;;;20.25;13.50;;;;;;;;5096891;27;51183;-53
2022/03/29 04:59:55;;;;;;;;;22.50;14.25;;;;;;;;5079821;27;51368;-54
2022/03/29 05:02:53;;;;;;;;;17.75;12.75;;;;;;;;5080338;27;51198;-52
2022/03/29 05:05:37;;;;;;;;;17.00;12.00;;;;;;;;5080578;27;51452;-51
2022/03/29 05:08:22;;;;;;;;;13.75;11.75;;;;;;;;5079293;27;51213;-55
2022/03/29 05:11:07;;;;;;;;;18.50;12.00;;;;;;;;5080354;27;51086;-48
2022/03/29 05:13:54;;;;;;;;;10.25;9.50;;;;;;;;5076035;27;51114;-52
2022/03/29 05:16:39;;;;;;;;;9.50;8.25;;;;;;;;5080365;27;51200;-47
2022/03/29 05:19:24;;;;;;;;;15.25;13.50;;;;;;;;5095095;27;51093;-48
2022/03/29 05:22:10;;;;;;;;;12.00;10.50;;;;;;;;5095522;27;51205;-49
2022/03/29 05:24:56;;;;;;;;;13.50;10.00;;;;;;;;5099905;27;51078;-53
2022/03/29 05:27:42;;;;;;;;;18.25;11.00;;;;;;;;5084696;27;51170;-51
2022/03/29 05:30:35;;;;;;;;;20.25;15.25;;;;;;;;5088946;27;51414;-50
2022/03/29 05:33:28;;;;;;;;;17.75;10.25;;;;;;;;5099360;27;51175;-53
2022/03/29 05:36:24;;;;;;;;;14.50;8.75;;;;;;;;5099059;27;51568;-51
2022/03/29 05:39:09;;;;;;;;;18.25;10.75;;;;;;;;5080025;27;52490;-50
2022/03/29 05:41:54;;;;;;;;;19.25;12.50;;;;;;;;5091688;27;51420;-50
2022/03/29 05:45:04;;;;;;;;;11.75;9.25;;;;;;;;5083282;27;51166;-51
2022/03/29 05:50:52;;;;;;;;;11.75;10.25;;;;;;;;5098098;27;51145;-49
2022/03/29 05:53:36;;;;;;;;;11.50;9.00;;;;;;;;5103904;27;51076;-51
2022/03/29 05:56:22;;;;;;;;;13.50;11.25;;;;;;;;5073990;27;51386;-52
2022/03/29 05:59:12;;;;;;;;;13.25;10.00;;;;;;;;5093084;27;51101;-50
2022/03/29 06:02:04;;;;;;;;;15.75;12.75;;;;;;;;5095764;27;51069;-51
2022/03/29 06:04:53;;;;;;;;;9.00;5.00;;;;;;;;5083858;27;52516;-52
2022/03/29 06:07:44;;;;;;;;;8.50;7.25;;;;;;;;5082990;27;51393;-51
2022/03/29 06:10:38;;;;;;;;;10.00;8.25;;;;;;;;5097214;27;51174;-50
2022/03/29 06:13:23;;;;;;;;;16.25;11.00;;;;;;;;5089623;27;51099;-51
2022/03/29 06:16:09;;;;;;;;;12.00;10.75;;;;;;;;5082991;27;51414;-49
2022/03/29 06:18:58;;;;;;;;;13.75;9.75;;;;;;;;5097104;27;51083;-52
2022/03/29 06:21:51;;;;;;;;;15.50;8.00;;;;;;;;5083244;27;51053;-53
2022/03/29 06:24:48;;;;;;;;;14.75;10.25;;;;;;;;5102155;27;51177;-49
2022/03/29 06:27:32;;;;;;;;;13.50;7.50;;;;;;;;5096502;27;51238;-53
2022/03/29 06:30:16;;;;;;;;;15.75;10.00;;;;;;;;5085609;27;51149;-51
2022/03/29 06:33:04;;;;;;;;;15.50;11.50;;;;;;;;5093605;27;51462;-53
2022/03/29 06:35:49;;;;;;;;;12.50;10.75;;;;;;;;5075956;27;51148;-50
2022/03/29 06:38:35;;;;;;;;;17.25;11.50;;;;;;;;5101675;27;51173;-53
2022/03/29 06:41:30;;;;;;;;;15.25;9.25;;;;;;;;5101964;27;51107;-49
2022/03/29 06:44:17;;;;;;;;;13.75;12.25;;;;;;;;5102010;27;51156;-52
2022/03/29 06:47:07;;;;;;;;;16.50;10.00;;;;;;;;5084206;27;52024;-55
2022/03/29 06:49:58;;;;;;;;;10.50;9.50;;;;;;;;5094559;27;51229;-51
2022/03/29 06:52:44;;;;;;;;;12.25;9.00;;;;;;;;5087400;27;51644;-52
2022/03/29 06:55:38;;;;;;;;;12.25;9.25;;;;;;;;5090144;27;51149;-49
2022/03/29 06:58:28;;;;;;;;;10.75;7.25;;;;;;;;5089951;27;51485;-48
2022/03/29 07:01:23;;;;;;;;;11.25;6.50;;;;;;;;5097771;27;51233;-49
2022/03/29 07:04:09;;;;;;;;;12.50;10.00;;;;;;;;5083493;27;51144;-53
2022/03/29 07:06:55;;;;;;;;;10.25;9.75;;;;;;;;5081634;27;51134;-53
2022/03/29 07:13:05;;;;;;;;;9.50;9.50;;;;;;;;5101433;27;51435;-53
2022/03/29 07:15:54;;;;;;;;;13.75;9.00;;;;;;;;5102264;27;51140;-50
2022/03/29 07:18:59;;;;;;;;;12.50;10.25;;;;;;;;5082190;27;51158;-49
2022/03/29 07:21:54;;;;;;;;;12.50;9.50;;;;;;;;5098209;27;51094;-54
2022/03/29 07:24:41;;;;;;;;;10.00;8.75;;;;;;;;5100804;27;51080;-51
2022/03/29 07:27:28;;;;;;;;;17.50;11.25;;;;;;;;5089189;27;51089;-49
2022/03/29 07:30:15;;;;;;;;;13.25;8.50;;;;;;;;5082006;27;51158;-50
2022/03/29 07:33:01;;;;;;;;;7.00;7.00;;;;;;;;5081546;27;51000;-55
2022/03/29 07:35:46;;;;;;;;;8.50;7.00;;;;;;;;5101529;27;51447;-53
2022/03/29 07:38:32;;;;;;;;;9.75;7.25;;;;;;;;5099918;27;51096;-50
2022/03/29 07:41:19;;;;;;;;;10.00;8.50;;;;;;;;5082145;27;51189;-52
2022/03/29 07:44:14;;;;;;;;;9.50;9.50;;;;;;;;5081015;27;51119;-48
2022/03/29 07:47:00;;;;;;;;;10.00;9.25;;;;;;;;5081529;27;51115;-47
2022/03/29 07:49:46;;;;;;;;;11.50;7.75;;;;;;;;5100396;27;51026;-49
2022/03/29 07:52:31;;;;;;;;;13.00;7.75;;;;;;;;5081306;27;51161;-49
2022/03/29 07:55:26;;;;;;;;;13.50;10.00;;;;;;;;5098697;27;51090;-51
2022/03/29 07:58:10;;;;;;;;;15.50;11.00;;;;;;;;5101367;27;51082;-51
2022/03/29 08:00:56;;;;;;;;;14.25;10.75;;;;;;;;5101317;27;51181;-52
2022/03/29 08:03:52;;;;;;;;;14.00;10.75;;;;;;;;5081275;27;51154;-50
2022/03/29 08:06:41;;;;;;;;;13.50;7.50;;;;;;;;5080746;27;51076;-50
2022/03/29 08:09:29;;;;;;;;;13.50;8.50;;;;;;;;5080900;27;51568;-52
2022/03/29 08:12:33;;;;;;;;;12.75;8.50;;;;;;;;5096300;27;51069;-49
2022/03/29 08:15:17;;;;;;;;;11.00;9.00;;;;;;;;5081995;27;51376;-51
2022/03/29 08:18:03;;;;;;;;;14.75;10.00;;;;;;;;5077167;27;51169;-53
2022/03/29 08:20:47;;;;;;;;;10.25;8.75;;;;;;;;5080086;27;51086;-52
2022/03/29 08:23:43;;;;;;;;;11.00;7.00;;;;;;;;5087115;27;51364;-48
2022/03/29 08:26:50;;;;;;;;;9.00;5.50;;;;;;;;5090246;27;52258;-51
2022/03/29 08:29:47;;;;;;;;;11.00;5.75;;;;;;;;5089144;27;51189;-51
2022/03/29 08:32:32;;;;;;;;;9.25;8.25;;;;;;;;5081068;27;51053;-50
2022/03/29 08:35:18;;;;;;;;;6.75;4.50;;;;;;;;5080281;27;51142;-53
2022/03/29 08:38:03;;;;;;;;;10.75;7.00;;;;;;;;5083998;27;51188;-53
2022/03/29 08:40:48;;;;;;;;;8.75;7.00;;;;;;;;5092528;27;51397;-53
2022/03/29 08:43:32;;;;;;;;;1.50;1.50;;;;;;;;5087175;27;51174;-51
2022/03/29 08:46:18;;;;;;;;;9.75;7.00;;;;;;;;5080744;27;51075;-51
2022/03/29 08:49:03;;;;;;;;;15.75;10.00;;;;;;;;5080594;27;51416;-48
2022/03/29 08:51:50;;;;;;;;;10.75;7.25;;;;;;;;5100359;27;52626;-51
2022/03/29 08:54:50;;;;;;;;;8.25;8.00;;;;;;;;5081178;27;51118;-47
2022/03/29 08:57:38;;;;;;;;;14.75;8.25;;;;;;;;5094322;27;51026;-52
2022/03/29 09:00:26;;;;;;;;;7.50;3.75;;;;;;;;5079647;27;51200;-52
2022/03/29 09:03:31;;;;;;;;;14.50;5.75;;;;;;;;5082667;27;51235;-53
2022/03/29 09:06:16;;;;;;;;;8.50;7.50;;;;;;;;5090139;27;51127;-51
2022/03/29 09:09:02;;;;;;;;;15.00;7.00;;;;;;;;5099439;27;51113;-48
2022/03/29 09:11:47;;;;;;;;;8.00;6.00;;;;;;;;5093166;27;51186;-54
2022/03/29 09:14:31;;;;;;;;;7.25;5.50;;;;;;;;5085312;27;51218;-49
2022/03/29 09:17:26;;;;;;;;;10.50;6.00;;;;;;;;5098638;27;51120;-52
2022/03/29 09:20:12;;;;;;;;;7.50;5.75;;;;;;;;5077823;27;51107;-50
2022/03/29 09:22:58;;;;;;;;;11.50;7.25;;;;;;;;5091909;27;51192;-53
2022/03/29 09:25:47;;;;;;;;;9.75;5.00;;;;;;;;5099638;27;51484;-50
2022/03/29 09:28:36;;;;;;;;;8.25;5.50;;;;;;;;5071069;28;51485;-54
2022/03/29 09:31:28;;;;;;;;;11.25;7.50;;;;;;;;5092528;27;51218;-55
2022/03/29 09:34:22;;;;;;;;;11.00;5.25;;;;;;;;5075590;27;51121;-54
2022/03/29 09:37:07;;;;;;;;;6.00;6.00;;;;;;;;5078500;27;51167;-53
2022/03/29 09:39:52;;;;;;;;;8.75;6.50;;;;;;;;5078663;27;51139;-53
2022/03/29 09:42:39;;;;;;;;;10.75;6.50;;;;;;;;5091904;27;51470;-49
2022/03/29 09:46:02;;;;;;;;;7.00;6.25;;;;;;;;5091384;27;51125;-52
2022/03/29 09:48:46;;;;;;;;;10.50;5.50;;;;;;;;5085358;27;51076;-49
2022/03/29 09:51:32;;;;;;;;;9.25;5.75;;;;;;;;5087351;27;51541;-52
2022/03/29 09:54:18;;;;;;;;;8.00;4.50;;;;;;;;5083323;27;51088;-52
2022/03/29 09:57:04;;;;;;;;;10.25;5.75;;;;;;;;5081590;27;51085;-49
2022/03/29 10:00:09;;;;;;;;;8.00;3.50;;;;;;;;5097413;27;51090;-48
2022/03/29 10:02:59;;;;;;;;;8.00;5.50;;;;;;;;5098769;27;51216;-52
2022/03/29 10:05:47;;;;;;;;;12.25;7.75;;;;;;;;5083037;27;51199;-49
2022/03/29 10:11:39;;;;;;;;;6.00;4.00;;;;;;;;5098430;27;51095;-48
2022/03/29 10:14:31;;;;;;;;;8.00;5.25;;;;;;;;5097326;27;51103;-48
2022/03/29 10:17:16;;;;;;;;;6.25;5.00;;;;;;;;5098130;27;52319;-47
2022/03/29 10:20:01;;;;;;;;;11.00;7.25;;;;;;;;5089218;27;51214;-48
2022/03/29 10:22:50;;;;;;;;;8.00;6.50;;;;;;;;5089395;27;51070;-49
2022/03/29 10:25:36;;;;;;;;;5.00;5.00;;;;;;;;5087191;27;51106;-49
2022/03/29 10:28:26;;;;;;;;;11.25;5.00;;;;;;;;5102649;27;51109;-50
2022/03/29 10:31:42;;;;;;;;;12.50;6.25;;;;;;;;5101813;27;51510;-52
2022/03/29 10:34:49;;;;;;;;;8.50;5.50;;;;;;;;5061021;27;51403;-51
2022/03/29 10:37:54;;;;;;;;;9.75;5.00;;;;;;;;5095982;27;51121;-48
2022/03/29 10:40:39;;;;;;;;;8.75;5.00;;;;;;;;5095490;27;51116;-49
2022/03/29 10:43:38;;;;;;;;;8.50;5.50;;;;;;;;5086329;27;51471;-48
2022/03/29 10:46:38;;;;;;;;;8.50;3.00;;;;;;;;5100588;27;51095;-49
2022/03/29 10:49:23;;;;;;;;;6.00;4.50;;;;;;;;5083250;27;51418;-49
2022/03/29 10:52:11;;;;;;;;;8.00;4.75;;;;;;;;5096695;27;51130;-50
2022/03/29 10:55:15;;;;;;;;;7.50;6.25;;;;;;;;5093286;27;51048;-47
2022/03/29 10:58:33;;;;;;;;;9.00;6.75;;;;;;;;5082127;27;51618;-50
2022/03/29 11:01:22;;;;;;;;;10.25;7.25;;;;;;;;5098804;27;51372;-48
2022/03/29 11:04:16;;;;;;;;;7.25;5.00;;;;;;;;5085234;27;51102;-48
2022/03/29 11:07:07;;;;;;;;;9.00;5.50;;;;;;;;5082118;27;51174;-50
2022/03/29 11:10:06;;;;;;;;;6.50;5.00;;;;;;;;5091745;27;51035;-47
2022/03/29 11:12:57;;;;;;;;;5.25;4.50;;;;;;;;5101307;27;50956;-48
2022/03/29 11:15:44;;;;;;;;;9.00;5.25;;;;;;;;5092651;27;51474;-47
2022/03/29 11:18:30;;;;;;;;;10.00;6.00;;;;;;;;5088688;27;51150;-51
2022/03/29 11:21:28;;;;;;;;;8.25;6.00;;;;;;;;5101851;27;51078;-49
2022/03/29 11:24:15;;;;;;;;;9.00;5.25;;;;;;;;5089192;27;51461;-48
2022/03/29 11:27:01;;;;;;;;;8.75;4.50;;;;;;;;5081253;27;51116;-48
2022/03/29 11:29:45;;;;;;;;;8.50;7.00;;;;;;;;5091696;27;51157;-51
2022/03/29 11:32:34;;;;;;;;;7.00;5.00;;;;;;;;5085163;27;51095;-50
2022/03/29 11:35:20;;;;;;;;;7.50;5.00;;;;;;;;5080959;27;51493;-50
2022/03/29 11:38:23;;;;;;;;;9.50;5.25;;;;;;;;5099302;27;51121;-48
2022/03/29 11:41:30;;;;;;;;;8.75;3.75;;;;;;;;5101639;27;51004;-51
2022/03/29 11:44:17;;;;;;;;;8.00;5.25;;;;;;;;5095858;27;51047;-48
2022/03/29 11:47:05;;;;;;;;;14.50;7.00;;;;;;;;5084554;27;51079;-48
2022/03/29 11:49:50;;;;;;;;;11.75;6.50;;;;;;;;5081657;27;51208;-49
2022/03/29 11:52:35;;;;;;;;;8.00;4.50;;;;;;;;5088797;27;51539;-52
2022/03/29 11:55:41;;;;;;;;;8.00;5.50;;;;;;;;5085582;27;52239;-48
2022/03/29 11:58:30;;;;;;;;;11.00;4.00;;;;;;;;5081163;27;51163;-52
2022/03/29 12:01:35;;;;;;;;;8.75;5.50;;;;;;;;5088055;27;51547;-49
2022/03/29 12:04:20;;;;;;;;;7.25;4.75;;;;;;;;5100848;27;51087;-47
2022/03/29 12:07:07;;;;;;;;;8.25;4.25;;;;;;;;5068325;27;51109;-49
2022/03/29 12:09:52;;;;;;;;;8.50;5.50;;;;;;;;5047087;27;51200;-49
2022/03/29 12:12:36;;;;;;;;;7.50;4.75;;;;;;;;5072265;27;51953;-47
2022/03/29 12:15:22;;;;;;;;;9.00;5.25;;;;;;;;5079804;27;51507;-51
2022/03/29 12:21:21;;;;;;;;;7.50;6.25;;;;;;;;5079546;27;51128;-48
2022/03/29 12:24:07;;;;;;;;;5.50;5.50;;;;;;;;5077811;27;51251;-49
2022/03/29 12:27:02;;;;;;;;;8.25;4.50;;;;;;;;5060569;27;51081;-48
2022/03/29 12:30:01;;;;;;;;;7.75;4.50;;;;;;;;5063987;27;51043;-48
2022/03/29 12:32:47;;;;;;;;;4.50;4.50;;;;;;;;5071529;27;51547;-50
2022/03/29 12:35:33;;;;;;;;;5.00;4.00;;;;;;;;5066570;27;51474;-47
2022/03/29 12:38:21;;;;;;;;;6.50;3.25;;;;;;;;5075408;27;51343;-48
2022/03/29 12:41:08;;;;;;;;;3.00;3.00;;;;;;;;5064554;27;51643;-50
2022/03/29 12:43:53;;;;;;;;;6.75;5.25;;;;;;;;5074021;27;51130;-48
2022/03/29 12:46:47;;;;;;;;;7.00;4.25;;;;;;;;5076309;27;51153;-51
2022/03/29 12:49:32;;;;;;;;;5.50;5.00;;;;;;;;5070072;27;51012;-49
2022/03/29 12:52:18;;;;;;;;;7.50;5.00;;;;;;;;5058937;28;51208;-49
2022/03/29 12:55:06;;;;;;;;;6.50;3.25;;;;;;;;5070931;27;51099;-50
2022/03/29 12:57:59;;;;;;;;;7.50;4.00;;;;;;;;5066145;27;51095;-50
2022/03/29 13:00:45;;;;;;;;;5.25;5.00;;;;;;;;5070400;27;51023;-48
2022/03/29 13:03:37;;;;;;;;;8.75;4.75;;;;;;;;5075829;27;51078;-50
2022/03/29 13:06:22;;;;;;;;;9.75;3.50;;;;;;;;5062253;27;51086;-52
2022/03/29 13:09:17;;;;;;;;;9.00;5.25;;;;;;;;5075164;27;51059;-47
2022/03/29 13:12:09;;;;;;;;;12.50;5.25;;;;;;;;5095740;27;51230;-50
2022/03/29 13:14:58;;;;;;;;;5.75;4.50;;;;;;;;5079069;27;51089;-48
2022/03/29 13:17:43;;;;;;;;;6.00;3.50;;;;;;;;5098328;27;51445;-48
2022/03/29 13:20:28;;;;;;;;;5.25;4.25;;;;;;;;5093979;27;51250;-49
2022/03/29 13:23:12;;;;;;;;;9.00;6.25;;;;;;;;5091821;27;51160;-52
2022/03/29 13:25:58;;;;;;;;;8.00;4.00;;;;;;;;5079445;27;51179;-50
2022/03/29 13:28:44;;;;;;;;;15.75;7.25;;;;;;;;5079507;27;51074;-50
2022/03/29 13:31:30;;;;;;;;;12.00;6.00;;;;;;;;5098204;27;51446;-47
2022/03/29 13:34:15;;;;;;;;;6.50;3.75;;;;;;;;5099180;27;51443;-49
2022/03/29 13:37:06;;;;;;;;;7.75;6.50;;;;;;;;5095117;27;51157;-49
2022/03/29 13:40:03;;;;;;;;;4.25;3.25;;;;;;;;5097321;27;51199;-48
2022/03/29 13:42:49;;;;;;;;;6.75;6.25;;;;;;;;5098441;27;51141;-48
2022/03/29 13:45:37;;;;;;;;;10.50;6.00;;;;;;;;5099382;27;51112;-49
2022/03/29 13:48:21;;;;;;;;;9.50;5.25;;;;;;;;5084054;27;51222;-47
2022/03/29 13:51:22;;;;;;;;;8.75;4.50;;;;;;;;5096299;27;51159;-53
2022/03/29 13:54:07;;;;;;;;;7.75;4.00;;;;;;;;5083114;27;51148;-51
2022/03/29 13:56:53;;;;;;;;;8.00;6.50;;;;;;;;5090711;27;51163;-48
2022/03/29 13:59:45;;;;;;;;;7.75;4.25;;;;;;;;5076528;27;51393;-49
2022/03/29 14:03:13;;;;;;;;;5.50;4.25;;;;;;;;5101324;27;51180;-51
2022/03/29 14:05:58;;;;;;;;;8.50;5.00;;;;;;;;5090115;27;51200;-53
2022/03/29 14:08:44;;;;;;;;;10.50;9.00;;;;;;;;5094567;27;51468;-51
2022/03/29 14:11:28;;;;;;;;;8.50;5.00;;;;;;;;5102466;27;51142;-49
2022/03/29 14:14:14;;;;;;;;;7.25;4.50;;;;;;;;5102448;27;51203;-49
2022/03/29 14:17:03;;;;;;;;;6.75;6.00;;;;;;;;5101707;27;51391;-52
2022/03/29 14:19:51;;;;;;;;;7.50;5.25;;;;;;;;5103010;27;51394;-49
2022/03/29 14:22:46;;;;;;;;;5.00;4.50;;;;;;;;5082038;27;51595;-52
2022/03/29 14:25:39;;;;;;;;;8.25;6.25;;;;;;;;5082210;27;51435;-51
2022/03/29 14:28:24;;;;;;;;;8.25;6.25;;;;;;;;5078827;27;51107;-52
2022/03/29 14:31:12;;;;;;;;;7.25;4.25;;;;;;;;5098181;27;51178;-48
2022/03/29 14:33:57;;;;;;;;;14.75;7.00;;;;;;;;5102615;27;51664;-49
2022/03/29 14:36:42;;;;;;;;;7.00;4.00;;;;;;;;5102306;27;51259;-49
2022/03/29 14:39:26;;;;;;;;;10.75;6.50;;;;;;;;5078274;27;51369;-53
2022/03/29 14:42:10;;;;;;;;;3.75;3.00;;;;;;;;5097624;27;51070;-51
2022/03/29 14:44:55;;;;;;;;;11.00;5.25;;;;;;;;5102203;27;51099;-49
2022/03/29 14:47:40;;;;;;;;;10.00;5.75;;;;;;;;5093683;27;51547;-48
2022/03/29 14:50:25;;;;;;;;;7.25;5.50;;;;;;;;5087761;27;51171;-48
2022/03/29 14:53:09;;;;;;;;;8.75;4.50;;;;;;;;5073393;27;51156;-48
2022/03/29 14:55:55;;;;;;;;;10.75;6.75;;;;;;;;5091045;27;51049;-53
2022/03/29 14:58:40;;;;;;;;;7.50;4.25;;;;;;;;5096807;27;51099;-48
2022/03/29 15:01:25;;;;;;;;;7.00;5.25;;;;;;;;5097755;27;51171;-49
2022/03/29 15:04:11;;;;;;;;;6.75;3.50;;;;;;;;5100069;27;51612;-49
2022/03/29 15:06:56;;;;;;;;;7.00;6.00;;;;;;;;5093070;27;51092;-51
2022/03/29 15:09:40;;;;;;;;;5.00;5.00;;;;;;;;5088018;27;51328;-48
2022/03/29 15:12:27;;;;;;;;;7.75;7.00;;;;;;;;5091151;27;51201;-46
2022/03/29 15:15:14;;;;;;;;;7.75;5.50;;;;;;;;5081646;27;51225;-52
2022/03/29 15:18:18;;;;;;;;;8.50;4.75;;;;;;;;5096027;27;51134;-48
2022/03/29 15:21:02;;;;;;;;;6.00;5.50;;;;;;;;5081972;27;51206;-49
2022/03/29 15:23:47;;;;;;;;;8.00;5.25;;;;;;;;5090452;27;51491;-51
2022/03/29 15:26:42;;;;;;;;;8.00;4.50;;;;;;;;5091405;27;51134;-52
2022/03/29 15:29:34;;;;;;;;;8.25;4.75;;;;;;;;5081137;27;51034;-49
2022/03/29 15:32:20;;;;;;;;;11.25;5.25;;;;;;;;5090342;27;50976;-50
2022/03/29 15:35:05;;;;;;;;;6.75;2.75;;;;;;;;5101227;27;51117;-52
2022/03/29 15:37:49;;;;;;;;;3.25;2.75;;;;;;;;5101461;27;51137;-49
2022/03/29 15:40:34;;;;;;;;;10.00;4.00;;;;;;;;5092226;27;51027;-47
2022/03/29 15:43:19;;;;;;;;;4.75;4.75;;;;;;;;5089805;27;51010;-46
2022/03/29 15:46:04;;;;;;;;;9.00;7.00;;;;;;;;5066633;27;51055;-50
2022/03/29 15:48:48;;;;;;;;;9.75;6.00;;;;;;;;5098782;27;51067;-46
2022/03/29 15:51:32;;;;;;;;;13.75;10.00;;;;;;;;5098705;27;51128;-49
2022/03/29 15:54:22;;;;;;;;;8.25;7.25;;;;;;;;5096933;27;51430;-46
2022/03/29 15:57:27;;;;;;;;;10.25;6.75;;;;;;;;5100664;27;51180;-48
2022/03/29 16:00:12;;;;;;;;;9.00;6.00;;;;;;;;5089956;27;51016;-51
2022/03/29 16:03:05;;;;;;;;;7.25;6.25;;;;;;;;5087942;27;51215;-48
2022/03/29 16:05:49;;;;;;;;;7.50;6.00;;;;;;;;5094656;27;51336;-51
2022/03/29 16:08:36;;;;;;;;;9.50;8.25;;;;;;;;5098091;27;51138;-49
2022/03/29 16:11:22;;;;;;;;;11.50;8.25;;;;;;;;5098618;27;51082;-50
2022/03/29 16:14:16;;;;;;;;;9.50;7.50;;;;;;;;5092008;27;51103;-51
2022/03/29 16:17:02;;;;;;;;;11.00;10.25;;;;;;;;5099600;27;51227;-51
2022/03/29 16:19:46;;;;;;;;;15.00;11.75;;;;;;;;5099598;27;51300;-50
2022/03/29 16:22:31;;;;;;;;;12.50;11.50;;;;;;;;5099678;27;51182;-49
2022/03/29 16:25:40;;;;;;;;;20.75;12.25;;;;;;;;5084499;27;51286;-49
2022/03/29 16:28:45;;;;;;;;;18.00;11.50;;;;;;;;5098275;27;51385;-49
2022/03/29 16:31:36;;;;;;;;;13.75;8.50;;;;;;;;5078882;27;51475;-50
2022/03/29 16:34:30;;;;;;;;;11.75;6.75;;;;;;;;5087895;27;51227;-47
2022/03/29 16:37:15;;;;;;;;;7.75;7.25;;;;;;;;5081131;27;51096;-49
2022/03/29 16:40:03;;;;;;;;;12.00;6.75;;;;;;;;5079168;27;51495;-53
2022/03/29 16:43:09;;;;;;;;;9.50;5.00;;;;;;;;5085936;27;51064;-48
2022/03/29 16:45:55;;;;;;;;;6.50;4.25;;;;;;;;5080140;27;51531;-49
2022/03/29 16:48:41;;;;;;;;;9.00;5.75;;;;;;;;5096415;27;51105;-51
2022/03/29 16:51:26;;;;;;;;;11.25;6.00;;;;;;;;5086559;27;51087;-50
2022/03/29 16:54:15;;;;;;;;;5.75;5.50;;;;;;;;5097684;27;51179;-49
2022/03/29 16:57:07;;;;;;;;;12.50;7.50;;;;;;;;5100158;27;51072;-49
2022/03/29 16:59:53;;;;;;;;;5.75;5.75;;;;;;;;5064676;27;51155;-48
2022/03/29 17:03:00;;;;;;;;;8.25;5.50;;;;;;;;5088939;27;51136;-48
2022/03/29 17:06:23;;;;;;;;;9.00;5.50;;;;;;;;4345789;32;51098;-45